sensor_id;sensor_type;location;lat;lon;timestamp;P1;durP1;ratioP1;P2;durP2;ratioP2
6109;SDS011;3085;49.444;11.054;2023-10-19T00:02:04;33.77;;;13.67;;
6109;SDS011;3085;49.444;11.054;2023-10-19T00:04:32;40.63;;;14.53;;
6109;SDS011;3085;49.444;11.054;2023-10-19T00:07:00;32.13;;;13.97;;
6109;SDS011;3085;49.444;11.054;2023-10-19T00:09:29;30.83;;;14.43;;
6109;SDS011;3085;49.444;11.054;2023-10-19T00:12:02;35.20;;;14.50;;
6109;SDS011;3085;49.444;11.054;2023-10-19T00:14:31;29.93;;;13.53;;
6109;SDS011;3085;49.444;11.054;2023-10-19T00:16:57;25.90;;;11.30;;
6109;SDS011;3085;49.444;11.054;2023-10-19T00:19:30;33.37;;;14.80;;
6109;SDS011;3085;49.444;11.054;2023-10-19T00:22:02;27.57;;;12.93;;
6109;SDS011;3085;49.444;11.054;2023-10-19T00:24:33;31.17;;;14.57;;
6109;SDS011;3085;49.444;11.054;2023-10-19T00:26:59;33.57;;;14.47;;
6109;SDS011;3085;49.444;11.054;2023-10-19T00:29:32;30.40;;;13.57;;
6109;SDS011;3085;49.444;11.054;2023-10-19T00:32:05;26.50;;;12.67;;
6109;SDS011;3085;49.444;11.054;2023-10-19T00:34:38;26.70;;;12.47;;
6109;SDS011;3085;49.444;11.054;2023-10-19T00:37:05;24.77;;;12.33;;
6109;SDS011;3085;49.444;11.054;2023-10-19T00:39:36;27.63;;;13.07;;
6109;SDS011;3085;49.444;11.054;2023-10-19T00:42:12;28.67;;;14.37;;
6109;SDS011;3085;49.444;11.054;2023-10-19T00:44:42;25.83;;;11.83;;
6109;SDS011;3085;49.444;11.054;2023-10-19T00:47:14;28.27;;;12.27;;
6109;SDS011;3085;49.444;11.054;2023-10-19T00:49:44;37.03;;;12.00;;
6109;SDS011;3085;49.444;11.054;2023-10-19T00:52:11;24.77;;;12.77;;
6109;SDS011;3085;49.444;11.054;2023-10-19T00:54:44;23.27;;;11.13;;
6109;SDS011;3085;49.444;11.054;2023-10-19T00:57:17;26.00;;;11.53;;
6109;SDS011;3085;49.444;11.054;2023-10-19T00:59:47;22.40;;;11.17;;
6109;SDS011;3085;49.444;11.054;2023-10-19T01:02:18;23.57;;;12.50;;
6109;SDS011;3085;49.444;11.054;2023-10-19T01:04:54;33.00;;;14.30;;
6109;SDS011;3085;49.444;11.054;2023-10-19T01:07:24;36.73;;;14.60;;
6109;SDS011;3085;49.444;11.054;2023-10-19T01:09:54;26.73;;;13.50;;
6109;SDS011;3085;49.444;11.054;2023-10-19T01:12:22;29.23;;;13.20;;
6109;SDS011;3085;49.444;11.054;2023-10-19T01:15:02;34.43;;;13.60;;
6109;SDS011;3085;49.444;11.054;2023-10-19T01:17:35;41.20;;;16.70;;
6109;SDS011;3085;49.444;11.054;2023-10-19T01:20:06;29.30;;;11.77;;
6109;SDS011;3085;49.444;11.054;2023-10-19T01:22:47;27.67;;;12.27;;
6109;SDS011;3085;49.444;11.054;2023-10-19T01:25:18;25.80;;;13.10;;
6109;SDS011;3085;49.444;11.054;2023-10-19T01:27:59;26.73;;;13.27;;
6109;SDS011;3085;49.444;11.054;2023-10-19T01:30:32;27.03;;;11.57;;
6109;SDS011;3085;49.444;11.054;2023-10-19T01:32:59;25.70;;;12.27;;
6109;SDS011;3085;49.444;11.054;2023-10-19T01:35:26;32.50;;;14.10;;
6109;SDS011;3085;49.444;11.054;2023-10-19T01:38:14;24.53;;;11.80;;
6109;SDS011;3085;49.444;11.054;2023-10-19T01:40:40;26.93;;;12.60;;
6109;SDS011;3085;49.444;11.054;2023-10-19T01:43:11;43.60;;;14.73;;
6109;SDS011;3085;49.444;11.054;2023-10-19T01:45:45;23.43;;;11.90;;
6109;SDS011;3085;49.444;11.054;2023-10-19T01:48:11;22.30;;;10.73;;
6109;SDS011;3085;49.444;11.054;2023-10-19T01:50:38;30.17;;;14.27;;
6109;SDS011;3085;49.444;11.054;2023-10-19T01:53:05;25.07;;;12.30;;
6109;SDS011;3085;49.444;11.054;2023-10-19T01:55:39;27.50;;;11.50;;
6109;SDS011;3085;49.444;11.054;2023-10-19T01:58:06;25.37;;;12.60;;
6109;SDS011;3085;49.444;11.054;2023-10-19T02:00:33;25.00;;;13.37;;
6109;SDS011;3085;49.444;11.054;2023-10-19T02:03:05;20.10;;;11.57;;
6109;SDS011;3085;49.444;11.054;2023-10-19T02:05:32;20.00;;;10.67;;
6109;SDS011;3085;49.444;11.054;2023-10-19T02:08:04;23.83;;;11.50;;
6109;SDS011;3085;49.444;11.054;2023-10-19T02:10:32;24.77;;;10.80;;
6109;SDS011;3085;49.444;11.054;2023-10-19T02:13:00;25.00;;;12.33;;
6109;SDS011;3085;49.444;11.054;2023-10-19T02:15:31;25.07;;;12.63;;
6109;SDS011;3085;49.444;11.054;2023-10-19T02:17:59;27.20;;;11.97;;
6109;SDS011;3085;49.444;11.054;2023-10-19T02:20:27;27.30;;;14.10;;
6109;SDS011;3085;49.444;11.054;2023-10-19T02:22:53;28.07;;;12.43;;
6109;SDS011;3085;49.444;11.054;2023-10-19T02:25:22;30.67;;;13.00;;
6109;SDS011;3085;49.444;11.054;2023-10-19T02:27:50;23.20;;;12.90;;
6109;SDS011;3085;49.444;11.054;2023-10-19T02:30:18;31.57;;;13.40;;
6109;SDS011;3085;49.444;11.054;2023-10-19T02:32:44;26.23;;;12.60;;
6109;SDS011;3085;49.444;11.054;2023-10-19T02:35:12;22.73;;;12.17;;
6109;SDS011;3085;49.444;11.054;2023-10-19T02:37:39;30.20;;;14.50;;
6109;SDS011;3085;49.444;11.054;2023-10-19T02:40:06;29.67;;;13.47;;
6109;SDS011;3085;49.444;11.054;2023-10-19T02:42:37;21.87;;;11.07;;
6109;SDS011;3085;49.444;11.054;2023-10-19T02:45:05;21.70;;;12.57;;
6109;SDS011;3085;49.444;11.054;2023-10-19T02:47:34;29.13;;;12.63;;
6109;SDS011;3085;49.444;11.054;2023-10-19T02:50:01;25.60;;;12.50;;
6109;SDS011;3085;49.444;11.054;2023-10-19T02:52:35;24.57;;;11.53;;
6109;SDS011;3085;49.444;11.054;2023-10-19T02:55:02;30.27;;;14.13;;
6109;SDS011;3085;49.444;11.054;2023-10-19T02:57:29;29.43;;;13.80;;
6109;SDS011;3085;49.444;11.054;2023-10-19T02:59:57;24.60;;;12.90;;
6109;SDS011;3085;49.444;11.054;2023-10-19T03:02:24;27.03;;;13.37;;
6109;SDS011;3085;49.444;11.054;2023-10-19T03:04:54;23.70;;;13.13;;
6109;SDS011;3085;49.444;11.054;2023-10-19T03:07:20;33.90;;;13.13;;
6109;SDS011;3085;49.444;11.054;2023-10-19T03:09:49;24.37;;;11.67;;
6109;SDS011;3085;49.444;11.054;2023-10-19T03:12:15;34.90;;;13.83;;
6109;SDS011;3085;49.444;11.054;2023-10-19T03:14:43;26.50;;;13.37;;
6109;SDS011;3085;49.444;11.054;2023-10-19T03:17:11;25.77;;;12.40;;
6109;SDS011;3085;49.444;11.054;2023-10-19T03:19:38;22.47;;;11.73;;
6109;SDS011;3085;49.444;11.054;2023-10-19T03:22:07;23.30;;;12.53;;
6109;SDS011;3085;49.444;11.054;2023-10-19T03:24:34;25.57;;;11.90;;
6109;SDS011;3085;49.444;11.054;2023-10-19T03:27:06;29.67;;;12.90;;
6109;SDS011;3085;49.444;11.054;2023-10-19T03:29:37;27.80;;;13.50;;
6109;SDS011;3085;49.444;11.054;2023-10-19T03:32:05;29.57;;;14.00;;
6109;SDS011;3085;49.444;11.054;2023-10-19T03:34:33;29.30;;;12.60;;
6109;SDS011;3085;49.444;11.054;2023-10-19T03:37:01;25.40;;;11.57;;
6109;SDS011;3085;49.444;11.054;2023-10-19T03:39:32;22.93;;;11.60;;
6109;SDS011;3085;49.444;11.054;2023-10-19T03:42:02;22.10;;;11.00;;
6109;SDS011;3085;49.444;11.054;2023-10-19T03:44:31;28.57;;;11.70;;
6109;SDS011;3085;49.444;11.054;2023-10-19T03:47:08;27.00;;;12.90;;
6109;SDS011;3085;49.444;11.054;2023-10-19T03:49:44;32.80;;;14.57;;
6109;SDS011;3085;49.444;11.054;2023-10-19T03:52:12;29.00;;;12.80;;
6109;SDS011;3085;49.444;11.054;2023-10-19T03:54:50;23.43;;;12.37;;
6109;SDS011;3085;49.444;11.054;2023-10-19T03:57:18;24.43;;;12.80;;
6109;SDS011;3085;49.444;11.054;2023-10-19T03:59:48;21.37;;;11.17;;
6109;SDS011;3085;49.444;11.054;2023-10-19T04:02:17;24.50;;;11.47;;
6109;SDS011;3085;49.444;11.054;2023-10-19T04:04:46;40.93;;;13.30;;
6109;SDS011;3085;49.444;11.054;2023-10-19T04:07:14;25.83;;;12.93;;
6109;SDS011;3085;49.444;11.054;2023-10-19T04:09:47;22.47;;;12.27;;
6109;SDS011;3085;49.444;11.054;2023-10-19T04:12:34;30.27;;;13.10;;
6109;SDS011;3085;49.444;11.054;2023-10-19T04:15:03;34.73;;;13.00;;
6109;SDS011;3085;49.444;11.054;2023-10-19T04:17:35;26.37;;;13.80;;
6109;SDS011;3085;49.444;11.054;2023-10-19T04:20:04;25.63;;;13.30;;
6109;SDS011;3085;49.444;11.054;2023-10-19T04:22:43;25.37;;;12.87;;
6109;SDS011;3085;49.444;11.054;2023-10-19T04:25:12;27.17;;;12.80;;
6109;SDS011;3085;49.444;11.054;2023-10-19T04:27:41;32.07;;;13.87;;
6109;SDS011;3085;49.444;11.054;2023-10-19T04:30:09;24.10;;;12.70;;
6109;SDS011;3085;49.444;11.054;2023-10-19T04:32:41;24.17;;;12.30;;
6109;SDS011;3085;49.444;11.054;2023-10-19T04:35:08;24.63;;;12.67;;
6109;SDS011;3085;49.444;11.054;2023-10-19T04:37:38;28.67;;;12.57;;
6109;SDS011;3085;49.444;11.054;2023-10-19T04:40:07;32.23;;;14.20;;
6109;SDS011;3085;49.444;11.054;2023-10-19T04:42:37;30.67;;;13.93;;
6109;SDS011;3085;49.444;11.054;2023-10-19T04:45:04;23.60;;;11.20;;
6109;SDS011;3085;49.444;11.054;2023-10-19T04:47:36;30.13;;;14.53;;
6109;SDS011;3085;49.444;11.054;2023-10-19T04:50:05;28.97;;;12.67;;
6109;SDS011;3085;49.444;11.054;2023-10-19T04:52:35;32.90;;;13.57;;
6109;SDS011;3085;49.444;11.054;2023-10-19T04:55:07;27.93;;;13.00;;
6109;SDS011;3085;49.444;11.054;2023-10-19T04:57:34;25.67;;;13.13;;
6109;SDS011;3085;49.444;11.054;2023-10-19T05:00:04;28.20;;;12.73;;
6109;SDS011;3085;49.444;11.054;2023-10-19T05:02:38;27.23;;;13.00;;
6109;SDS011;3085;49.444;11.054;2023-10-19T05:05:05;27.03;;;13.83;;
6109;SDS011;3085;49.444;11.054;2023-10-19T05:07:35;22.67;;;11.90;;
6109;SDS011;3085;49.444;11.054;2023-10-19T05:15:19;23.47;;;12.57;;
6109;SDS011;3085;49.444;11.054;2023-10-19T05:20:23;27.60;;;13.60;;
6109;SDS011;3085;49.444;11.054;2023-10-19T05:22:51;34.93;;;14.60;;
6109;SDS011;3085;49.444;11.054;2023-10-19T05:25:20;33.03;;;13.83;;
6109;SDS011;3085;49.444;11.054;2023-10-19T05:27:48;22.93;;;12.10;;
6109;SDS011;3085;49.444;11.054;2023-10-19T05:30:21;23.83;;;12.90;;
6109;SDS011;3085;49.444;11.054;2023-10-19T05:32:49;33.27;;;15.30;;
6109;SDS011;3085;49.444;11.054;2023-10-19T05:35:17;29.43;;;13.10;;
6109;SDS011;3085;49.444;11.054;2023-10-19T05:37:51;24.77;;;13.60;;
6109;SDS011;3085;49.444;11.054;2023-10-19T05:40:19;25.40;;;12.90;;
6109;SDS011;3085;49.444;11.054;2023-10-19T05:42:48;30.97;;;14.23;;
6109;SDS011;3085;49.444;11.054;2023-10-19T05:45:21;25.53;;;12.60;;
6109;SDS011;3085;49.444;11.054;2023-10-19T05:47:49;28.63;;;13.20;;
6109;SDS011;3085;49.444;11.054;2023-10-19T05:50:17;29.47;;;13.13;;
6109;SDS011;3085;49.444;11.054;2023-10-19T05:52:45;24.23;;;13.13;;
6109;SDS011;3085;49.444;11.054;2023-10-19T05:55:12;26.20;;;14.00;;
6109;SDS011;3085;49.444;11.054;2023-10-19T05:57:46;41.90;;;14.67;;
6109;SDS011;3085;49.444;11.054;2023-10-19T06:00:31;28.53;;;13.93;;
6109;SDS011;3085;49.444;11.054;2023-10-19T06:03:00;31.13;;;12.13;;
6109;SDS011;3085;49.444;11.054;2023-10-19T06:05:31;30.87;;;14.10;;
6109;SDS011;3085;49.444;11.054;2023-10-19T06:08:03;27.27;;;14.40;;
6109;SDS011;3085;49.444;11.054;2023-10-19T06:10:35;31.70;;;13.20;;
6109;SDS011;3085;49.444;11.054;2023-10-19T06:13:17;26.87;;;14.10;;
6109;SDS011;3085;49.444;11.054;2023-10-19T06:22:01;24.40;;;11.90;;
6109;SDS011;3085;49.444;11.054;2023-10-19T06:24:31;24.37;;;11.97;;
6109;SDS011;3085;49.444;11.054;2023-10-19T06:27:13;30.23;;;15.00;;
6109;SDS011;3085;49.444;11.054;2023-10-19T06:29:48;29.87;;;12.37;;
6109;SDS011;3085;49.444;11.054;2023-10-19T06:32:16;24.73;;;12.77;;
6109;SDS011;3085;49.444;11.054;2023-10-19T06:35:01;30.60;;;12.60;;
6109;SDS011;3085;49.444;11.054;2023-10-19T06:37:31;29.03;;;12.40;;
6109;SDS011;3085;49.444;11.054;2023-10-19T06:39:58;24.23;;;12.87;;
6109;SDS011;3085;49.444;11.054;2023-10-19T06:42:25;21.43;;;10.97;;
6109;SDS011;3085;49.444;11.054;2023-10-19T06:44:52;23.10;;;12.20;;
6109;SDS011;3085;49.444;11.054;2023-10-19T06:47:22;23.83;;;13.13;;
6109;SDS011;3085;49.444;11.054;2023-10-19T06:49:49;29.47;;;13.70;;
6109;SDS011;3085;49.444;11.054;2023-10-19T06:52:24;25.03;;;13.20;;
6109;SDS011;3085;49.444;11.054;2023-10-19T06:54:59;29.57;;;13.93;;
6109;SDS011;3085;49.444;11.054;2023-10-19T06:57:47;26.47;;;12.40;;
6109;SDS011;3085;49.444;11.054;2023-10-19T07:00:18;23.00;;;11.47;;
6109;SDS011;3085;49.444;11.054;2023-10-19T07:02:57;26.20;;;12.40;;
6109;SDS011;3085;49.444;11.054;2023-10-19T07:05:39;26.67;;;13.20;;
6109;SDS011;3085;49.444;11.054;2023-10-19T07:08:08;26.03;;;12.53;;
6109;SDS011;3085;49.444;11.054;2023-10-19T07:10:35;27.70;;;12.30;;
6109;SDS011;3085;49.444;11.054;2023-10-19T07:13:06;30.53;;;14.00;;
6109;SDS011;3085;49.444;11.054;2023-10-19T07:15:36;27.80;;;13.20;;
6109;SDS011;3085;49.444;11.054;2023-10-19T07:18:06;27.13;;;12.77;;
6109;SDS011;3085;49.444;11.054;2023-10-19T07:20:35;26.63;;;12.90;;
6109;SDS011;3085;49.444;11.054;2023-10-19T07:23:03;22.40;;;11.77;;
6109;SDS011;3085;49.444;11.054;2023-10-19T07:25:38;30.73;;;13.70;;
6109;SDS011;3085;49.444;11.054;2023-10-19T07:28:09;24.30;;;12.67;;
6109;SDS011;3085;49.444;11.054;2023-10-19T07:30:40;27.57;;;13.10;;
6109;SDS011;3085;49.444;11.054;2023-10-19T07:33:12;29.00;;;13.70;;
6109;SDS011;3085;49.444;11.054;2023-10-19T07:35:42;30.07;;;14.63;;
6109;SDS011;3085;49.444;11.054;2023-10-19T07:38:12;29.47;;;13.53;;
6109;SDS011;3085;49.444;11.054;2023-10-19T07:40:41;29.77;;;12.20;;
6109;SDS011;3085;49.444;11.054;2023-10-19T07:43:11;25.27;;;11.20;;
6109;SDS011;3085;49.444;11.054;2023-10-19T07:45:39;31.20;;;12.60;;
6109;SDS011;3085;49.444;11.054;2023-10-19T07:48:08;23.70;;;13.03;;
6109;SDS011;3085;49.444;11.054;2023-10-19T07:50:36;28.53;;;13.40;;
6109;SDS011;3085;49.444;11.054;2023-10-19T07:53:05;23.33;;;13.10;;
6109;SDS011;3085;49.444;11.054;2023-10-19T07:55:34;25.20;;;12.60;;
6109;SDS011;3085;49.444;11.054;2023-10-19T07:58:05;30.60;;;12.70;;
6109;SDS011;3085;49.444;11.054;2023-10-19T08:00:32;42.17;;;14.10;;
6109;SDS011;3085;49.444;11.054;2023-10-19T08:03:00;25.90;;;12.37;;
6109;SDS011;3085;49.444;11.054;2023-10-19T08:05:27;23.47;;;12.10;;
6109;SDS011;3085;49.444;11.054;2023-10-19T08:07:55;31.70;;;14.57;;
6109;SDS011;3085;49.444;11.054;2023-10-19T08:10:24;27.50;;;13.40;;
6109;SDS011;3085;49.444;11.054;2023-10-19T08:12:52;25.70;;;12.87;;
6109;SDS011;3085;49.444;11.054;2023-10-19T08:15:21;35.70;;;12.43;;
6109;SDS011;3085;49.444;11.054;2023-10-19T08:17:49;27.03;;;12.57;;
6109;SDS011;3085;49.444;11.054;2023-10-19T08:20:18;25.17;;;12.70;;
6109;SDS011;3085;49.444;11.054;2023-10-19T08:22:49;29.37;;;13.50;;
6109;SDS011;3085;49.444;11.054;2023-10-19T08:25:16;22.80;;;12.50;;
6109;SDS011;3085;49.444;11.054;2023-10-19T08:27:43;32.00;;;12.17;;
6109;SDS011;3085;49.444;11.054;2023-10-19T08:30:13;25.90;;;12.43;;
6109;SDS011;3085;49.444;11.054;2023-10-19T08:32:44;26.30;;;12.03;;
6109;SDS011;3085;49.444;11.054;2023-10-19T08:35:13;29.13;;;12.97;;
6109;SDS011;3085;49.444;11.054;2023-10-19T08:37:40;31.73;;;12.33;;
6109;SDS011;3085;49.444;11.054;2023-10-19T08:40:09;24.73;;;12.77;;
6109;SDS011;3085;49.444;11.054;2023-10-19T08:42:39;25.33;;;12.63;;
6109;SDS011;3085;49.444;11.054;2023-10-19T08:45:07;27.93;;;12.23;;
6109;SDS011;3085;49.444;11.054;2023-10-19T08:47:37;23.47;;;12.67;;
6109;SDS011;3085;49.444;11.054;2023-10-19T08:50:09;27.70;;;13.27;;
6109;SDS011;3085;49.444;11.054;2023-10-19T08:52:37;30.73;;;13.10;;
6109;SDS011;3085;49.444;11.054;2023-10-19T08:55:06;23.60;;;13.47;;
6109;SDS011;3085;49.444;11.054;2023-10-19T08:57:34;27.67;;;13.03;;
6109;SDS011;3085;49.444;11.054;2023-10-19T09:00:04;21.47;;;12.47;;
6109;SDS011;3085;49.444;11.054;2023-10-19T09:02:31;24.53;;;12.30;;
6109;SDS011;3085;49.444;11.054;2023-10-19T09:04:58;21.90;;;12.40;;
6109;SDS011;3085;49.444;11.054;2023-10-19T09:07:27;25.53;;;12.73;;
6109;SDS011;3085;49.444;11.054;2023-10-19T09:09:55;23.43;;;11.60;;
6109;SDS011;3085;49.444;11.054;2023-10-19T09:12:23;25.23;;;12.10;;
6109;SDS011;3085;49.444;11.054;2023-10-19T09:14:50;22.20;;;12.20;;
6109;SDS011;3085;49.444;11.054;2023-10-19T09:17:16;30.70;;;12.47;;
6109;SDS011;3085;49.444;11.054;2023-10-19T09:19:54;24.97;;;12.10;;
6109;SDS011;3085;49.444;11.054;2023-10-19T09:22:21;22.67;;;11.10;;
6109;SDS011;3085;49.444;11.054;2023-10-19T09:24:50;23.17;;;12.93;;
6109;SDS011;3085;49.444;11.054;2023-10-19T09:27:18;21.37;;;12.23;;
6109;SDS011;3085;49.444;11.054;2023-10-19T09:29:46;17.87;;;10.40;;
6109;SDS011;3085;49.444;11.054;2023-10-19T09:32:13;28.00;;;12.30;;
6109;SDS011;3085;49.444;11.054;2023-10-19T09:34:40;27.70;;;12.33;;
6109;SDS011;3085;49.444;11.054;2023-10-19T09:37:08;24.00;;;12.07;;
6109;SDS011;3085;49.444;11.054;2023-10-19T09:39:36;22.63;;;11.27;;
6109;SDS011;3085;49.444;11.054;2023-10-19T09:42:05;26.10;;;11.47;;
6109;SDS011;3085;49.444;11.054;2023-10-19T09:44:39;23.73;;;12.00;;
6109;SDS011;3085;49.444;11.054;2023-10-19T09:47:08;22.47;;;11.37;;
6109;SDS011;3085;49.444;11.054;2023-10-19T09:49:38;26.50;;;12.43;;
6109;SDS011;3085;49.444;11.054;2023-10-19T09:52:05;33.83;;;11.77;;
6109;SDS011;3085;49.444;11.054;2023-10-19T09:54:37;25.73;;;11.70;;
6109;SDS011;3085;49.444;11.054;2023-10-19T09:57:14;28.57;;;11.87;;
6109;SDS011;3085;49.444;11.054;2023-10-19T09:59:49;16.27;;;9.53;;
6109;SDS011;3085;49.444;11.054;2023-10-19T10:02:22;19.67;;;11.20;;
6109;SDS011;3085;49.444;11.054;2023-10-19T10:04:51;21.63;;;12.17;;
6109;SDS011;3085;49.444;11.054;2023-10-19T10:07:17;23.57;;;11.50;;
6109;SDS011;3085;49.444;11.054;2023-10-19T10:09:45;22.07;;;11.53;;
6109;SDS011;3085;49.444;11.054;2023-10-19T10:12:19;27.80;;;11.50;;
6109;SDS011;3085;49.444;11.054;2023-10-19T10:17:33;24.30;;;12.10;;
6109;SDS011;3085;49.444;11.054;2023-10-19T10:23:20;20.40;;;11.03;;
6109;SDS011;3085;49.444;11.054;2023-10-19T10:25:49;18.30;;;9.67;;
6109;SDS011;3085;49.444;11.054;2023-10-19T10:28:19;24.70;;;10.57;;
6109;SDS011;3085;49.444;11.054;2023-10-19T10:31:07;23.90;;;11.53;;
6109;SDS011;3085;49.444;11.054;2023-10-19T10:33:38;21.30;;;10.90;;
6109;SDS011;3085;49.444;11.054;2023-10-19T10:36:05;23.20;;;11.80;;
6109;SDS011;3085;49.444;11.054;2023-10-19T10:38:33;22.20;;;11.30;;
6109;SDS011;3085;49.444;11.054;2023-10-19T10:41:01;17.77;;;9.50;;
6109;SDS011;3085;49.444;11.054;2023-10-19T10:43:29;26.00;;;11.40;;
6109;SDS011;3085;49.444;11.054;2023-10-19T10:46:03;29.50;;;12.70;;
6109;SDS011;3085;49.444;11.054;2023-10-19T10:48:30;20.17;;;10.77;;
6109;SDS011;3085;49.444;11.054;2023-10-19T10:50:57;22.17;;;11.20;;
6109;SDS011;3085;49.444;11.054;2023-10-19T10:53:24;19.80;;;10.80;;
6109;SDS011;3085;49.444;11.054;2023-10-19T10:55:51;24.17;;;11.37;;
6109;SDS011;3085;49.444;11.054;2023-10-19T10:58:19;25.17;;;10.90;;
6109;SDS011;3085;49.444;11.054;2023-10-19T11:00:48;18.30;;;10.03;;
6109;SDS011;3085;49.444;11.054;2023-10-19T11:03:16;24.07;;;10.53;;
6109;SDS011;3085;49.444;11.054;2023-10-19T11:05:43;18.50;;;10.47;;
6109;SDS011;3085;49.444;11.054;2023-10-19T11:08:12;29.07;;;10.83;;
6109;SDS011;3085;49.444;11.054;2023-10-19T11:10:39;18.10;;;9.07;;
6109;SDS011;3085;49.444;11.054;2023-10-19T11:13:09;15.97;;;9.87;;
6109;SDS011;3085;49.444;11.054;2023-10-19T11:15:37;16.70;;;9.73;;
6109;SDS011;3085;49.444;11.054;2023-10-19T11:18:06;19.90;;;9.60;;
6109;SDS011;3085;49.444;11.054;2023-10-19T11:20:33;15.90;;;9.17;;
6109;SDS011;3085;49.444;11.054;2023-10-19T11:23:00;16.67;;;9.50;;
6109;SDS011;3085;49.444;11.054;2023-10-19T11:25:28;16.57;;;8.60;;
6109;SDS011;3085;49.444;11.054;2023-10-19T11:27:57;19.40;;;9.50;;
6109;SDS011;3085;49.444;11.054;2023-10-19T11:30:27;25.07;;;9.50;;
6109;SDS011;3085;49.444;11.054;2023-10-19T11:32:54;19.13;;;9.63;;
6109;SDS011;3085;49.444;11.054;2023-10-19T11:35:25;17.30;;;8.77;;
6109;SDS011;3085;49.444;11.054;2023-10-19T11:37:53;17.63;;;8.50;;
6109;SDS011;3085;49.444;11.054;2023-10-19T11:40:21;15.47;;;9.10;;
6109;SDS011;3085;49.444;11.054;2023-10-19T11:42:50;16.60;;;9.10;;
6109;SDS011;3085;49.444;11.054;2023-10-19T11:45:17;16.90;;;8.60;;
6109;SDS011;3085;49.444;11.054;2023-10-19T11:47:44;21.83;;;8.80;;
6109;SDS011;3085;49.444;11.054;2023-10-19T11:50:12;16.57;;;9.20;;
6109;SDS011;3085;49.444;11.054;2023-10-19T11:52:41;18.53;;;9.00;;
6109;SDS011;3085;49.444;11.054;2023-10-19T11:55:08;15.07;;;7.93;;
6109;SDS011;3085;49.444;11.054;2023-10-19T11:57:35;14.13;;;8.30;;
6109;SDS011;3085;49.444;11.054;2023-10-19T12:00:02;13.60;;;7.87;;
6109;SDS011;3085;49.444;11.054;2023-10-19T12:02:34;12.40;;;7.33;;
6109;SDS011;3085;49.444;11.054;2023-10-19T12:05:02;14.50;;;8.00;;
6109;SDS011;3085;49.444;11.054;2023-10-19T12:07:34;14.73;;;8.40;;
6109;SDS011;3085;49.444;11.054;2023-10-19T12:10:03;14.10;;;8.27;;
6109;SDS011;3085;49.444;11.054;2023-10-19T12:12:30;13.33;;;8.40;;
6109;SDS011;3085;49.444;11.054;2023-10-19T12:14:57;16.50;;;7.60;;
6109;SDS011;3085;49.444;11.054;2023-10-19T12:17:24;12.80;;;7.20;;
6109;SDS011;3085;49.444;11.054;2023-10-19T12:19:52;12.47;;;7.57;;
6109;SDS011;3085;49.444;11.054;2023-10-19T12:22:20;12.60;;;7.77;;
6109;SDS011;3085;49.444;11.054;2023-10-19T12:24:47;12.27;;;7.07;;
6109;SDS011;3085;49.444;11.054;2023-10-19T12:27:15;15.73;;;7.37;;
6109;SDS011;3085;49.444;11.054;2023-10-19T12:29:43;13.87;;;6.97;;
6109;SDS011;3085;49.444;11.054;2023-10-19T12:32:10;13.53;;;6.83;;
6109;SDS011;3085;49.444;11.054;2023-10-19T12:34:39;13.07;;;8.40;;
6109;SDS011;3085;49.444;11.054;2023-10-19T12:37:06;18.80;;;8.20;;
6109;SDS011;3085;49.444;11.054;2023-10-19T12:39:35;19.73;;;8.97;;
6109;SDS011;3085;49.444;11.054;2023-10-19T12:42:07;26.20;;;8.50;;
6109;SDS011;3085;49.444;11.054;2023-10-19T12:44:36;23.83;;;7.80;;
6109;SDS011;3085;49.444;11.054;2023-10-19T12:47:06;13.53;;;8.00;;
6109;SDS011;3085;49.444;11.054;2023-10-19T12:49:35;9.50;;;6.37;;
6109;SDS011;3085;49.444;11.054;2023-10-19T12:52:02;13.80;;;7.53;;
6109;SDS011;3085;49.444;11.054;2023-10-19T12:54:29;18.20;;;7.20;;
6109;SDS011;3085;49.444;11.054;2023-10-19T12:56:56;15.10;;;8.27;;
6109;SDS011;3085;49.444;11.054;2023-10-19T12:59:22;17.83;;;7.73;;
6109;SDS011;3085;49.444;11.054;2023-10-19T13:01:51;11.80;;;7.30;;
6109;SDS011;3085;49.444;11.054;2023-10-19T13:04:23;14.77;;;7.40;;
6109;SDS011;3085;49.444;11.054;2023-10-19T13:06:49;15.30;;;8.30;;
6109;SDS011;3085;49.444;11.054;2023-10-19T13:09:16;20.37;;;8.07;;
6109;SDS011;3085;49.444;11.054;2023-10-19T13:11:47;19.80;;;7.90;;
6109;SDS011;3085;49.444;11.054;2023-10-19T13:14:16;24.30;;;9.60;;
6109;SDS011;3085;49.444;11.054;2023-10-19T13:16:43;15.77;;;8.10;;
6109;SDS011;3085;49.444;11.054;2023-10-19T13:19:11;21.57;;;11.17;;
6109;SDS011;3085;49.444;11.054;2023-10-19T13:21:40;20.23;;;9.97;;
6109;SDS011;3085;49.444;11.054;2023-10-19T13:24:08;15.77;;;8.50;;
6109;SDS011;3085;49.444;11.054;2023-10-19T13:26:35;22.57;;;11.57;;
6109;SDS011;3085;49.444;11.054;2023-10-19T13:29:03;24.10;;;10.57;;
6109;SDS011;3085;49.444;11.054;2023-10-19T13:31:30;25.03;;;11.50;;
6109;SDS011;3085;49.444;11.054;2023-10-19T13:33:57;33.20;;;14.00;;
6109;SDS011;3085;49.444;11.054;2023-10-19T13:36:26;32.77;;;15.20;;
6109;SDS011;3085;49.444;11.054;2023-10-19T13:38:53;30.77;;;13.37;;
6109;SDS011;3085;49.444;11.054;2023-10-19T13:41:19;49.23;;;20.70;;
6109;SDS011;3085;49.444;11.054;2023-10-19T13:43:47;29.53;;;13.40;;
6109;SDS011;3085;49.444;11.054;2023-10-19T13:46:13;26.73;;;13.30;;
6109;SDS011;3085;49.444;11.054;2023-10-19T13:48:41;22.07;;;10.60;;
6109;SDS011;3085;49.444;11.054;2023-10-19T13:51:07;25.03;;;12.20;;
6109;SDS011;3085;49.444;11.054;2023-10-19T13:53:39;29.17;;;14.47;;
6109;SDS011;3085;49.444;11.054;2023-10-19T13:56:09;17.43;;;9.83;;
6109;SDS011;3085;49.444;11.054;2023-10-19T13:58:36;20.23;;;9.60;;
6109;SDS011;3085;49.444;11.054;2023-10-19T14:01:06;27.43;;;13.10;;
6109;SDS011;3085;49.444;11.054;2023-10-19T14:03:34;26.87;;;12.60;;
6109;SDS011;3085;49.444;11.054;2023-10-19T14:06:02;17.60;;;9.20;;
6109;SDS011;3085;49.444;11.054;2023-10-19T14:08:31;15.97;;;8.07;;
6109;SDS011;3085;49.444;11.054;2023-10-19T14:11:02;13.80;;;7.27;;
6109;SDS011;3085;49.444;11.054;2023-10-19T14:13:29;12.73;;;7.60;;
6109;SDS011;3085;49.444;11.054;2023-10-19T14:15:56;18.23;;;8.43;;
6109;SDS011;3085;49.444;11.054;2023-10-19T14:18:23;16.37;;;8.40;;
6109;SDS011;3085;49.444;11.054;2023-10-19T14:20:50;13.00;;;6.87;;
6109;SDS011;3085;49.444;11.054;2023-10-19T14:23:17;11.40;;;7.23;;
6109;SDS011;3085;49.444;11.054;2023-10-19T14:25:43;14.80;;;7.37;;
6109;SDS011;3085;49.444;11.054;2023-10-19T14:28:11;21.33;;;7.03;;
6109;SDS011;3085;49.444;11.054;2023-10-19T14:30:38;13.73;;;7.43;;
6109;SDS011;3085;49.444;11.054;2023-10-19T14:33:05;14.27;;;8.63;;
6109;SDS011;3085;49.444;11.054;2023-10-19T14:35:36;15.67;;;8.07;;
6109;SDS011;3085;49.444;11.054;2023-10-19T14:38:06;13.73;;;7.70;;
6109;SDS011;3085;49.444;11.054;2023-10-19T14:40:34;20.50;;;7.63;;
6109;SDS011;3085;49.444;11.054;2023-10-19T14:43:01;11.47;;;6.80;;
6109;SDS011;3085;49.444;11.054;2023-10-19T14:45:30;13.50;;;7.43;;
6109;SDS011;3085;49.444;11.054;2023-10-19T14:47:58;12.90;;;7.20;;
6109;SDS011;3085;49.444;11.054;2023-10-19T14:50:28;21.33;;;8.20;;
6109;SDS011;3085;49.444;11.054;2023-10-19T14:52:55;14.70;;;8.07;;
6109;SDS011;3085;49.444;11.054;2023-10-19T14:55:22;14.27;;;7.63;;
6109;SDS011;3085;49.444;11.054;2023-10-19T14:57:52;14.77;;;7.87;;
6109;SDS011;3085;49.444;11.054;2023-10-19T15:00:20;26.20;;;11.27;;
6109;SDS011;3085;49.444;11.054;2023-10-19T15:02:53;14.50;;;8.33;;
6109;SDS011;3085;49.444;11.054;2023-10-19T15:05:21;28.10;;;8.60;;
6109;SDS011;3085;49.444;11.054;2023-10-19T15:07:50;21.60;;;10.07;;
6109;SDS011;3085;49.444;11.054;2023-10-19T15:10:23;23.20;;;10.17;;
6109;SDS011;3085;49.444;11.054;2023-10-19T15:12:51;61.93;;;15.23;;